Time;durP1;ratioP1;P1;durP2;ratioP2;P2;SDS_P1;SDS_P2;PMS_P1;PMS_P2;Temp;Humidity;BMP_temperature;BMP_pressure;BME280_temperature;BME280_humidity;BME280_pressure;Samples;Min_cycle;Max_cycle;Signal;HPM_P1;HPM_P2
2022/06/07 00:02:03;;;;;;;;;2.00;2.00;;;;;;;;5023372;28;51056;-69
2022/06/07 00:04:29;;;;;;;;;1.33;1.33;;;;;;;;5012377;28;51114;-69
2022/06/07 00:06:54;;;;;;;;;2.00;1.67;;;;;;;;5022012;28;51280;-68
2022/06/07 00:09:19;;;;;;;;;1.00;0.67;;;;;;;;5011422;28;51098;-69
2022/06/07 00:11:44;;;;;;;;;1.33;1.33;;;;;;;;5016853;28;51044;-70
2022/06/07 00:14:10;;;;;;;;;1.67;1.00;;;;;;;;5017509;28;50899;-68
2022/06/07 00:16:36;;;;;;;;;0.67;0.67;;;;;;;;5014341;28;51033;-69
2022/06/07 00:19:01;;;;;;;;;1.33;1.33;;;;;;;;5009797;28;51440;-68
2022/06/07 00:21:29;;;;;;;;;1.00;1.00;;;;;;;;5010218;28;51164;-68
2022/06/07 00:23:54;;;;;;;;;0.67;0.67;;;;;;;;4997458;28;51271;-68
2022/06/07 00:26:19;;;;;;;;;1.00;1.00;;;;;;;;5011484;28;51129;-68
2022/06/07 00:28:45;;;;;;;;;1.00;1.00;;;;;;;;5017478;28;53313;-67
2022/06/07 00:31:11;;;;;;;;;1.67;1.67;;;;;;;;5017493;28;51127;-69
2022/06/07 00:33:36;;;;;;;;;2.00;2.00;;;;;;;;5019349;28;51187;-69
2022/06/07 00:36:02;;;;;;;;;3.00;3.00;;;;;;;;5016515;28;50965;-68
2022/06/07 00:38:27;;;;;;;;;2.33;2.00;;;;;;;;5014416;28;52454;-68
2022/06/07 00:40:52;;;;;;;;;2.67;2.67;;;;;;;;5027312;28;51302;-68
2022/06/07 00:43:20;;;;;;;;;2.00;2.00;;;;;;;;5015636;28;51072;-68
2022/06/07 00:45:46;;;;;;;;;1.33;1.33;;;;;;;;5011268;28;51899;-68
2022/06/07 00:48:11;;;;;;;;;2.00;2.00;;;;;;;;5017958;28;51147;-68
2022/06/07 00:50:43;;;;;;;;;1.00;1.00;;;;;;;;5015812;28;51068;-68
2022/06/07 00:53:18;;;;;;;;;2.00;2.00;;;;;;;;5023812;28;51099;-69
2022/06/07 00:55:46;;;;;;;;;2.00;2.00;;;;;;;;5013644;28;51045;-69
2022/06/07 00:58:12;;;;;;;;;1.00;1.00;;;;;;;;5024168;28;51187;-68
2022/06/07 01:00:37;;;;;;;;;1.67;1.67;;;;;;;;5016744;28;51018;-68
2022/06/07 01:03:02;;;;;;;;;1.67;1.33;;;;;;;;5019122;28;51298;-68
2022/06/07 01:05:28;;;;;;;;;2.00;2.00;;;;;;;;5011399;28;51299;-67
2022/06/07 01:10:46;;;;;;;;;0.67;0.67;;;;;;;;5015696;28;51065;-68
2022/06/07 01:13:13;;;;;;;;;2.00;2.00;;;;;;;;5016390;28;51114;-69
2022/06/07 01:15:38;;;;;;;;;2.00;0.67;;;;;;;;5019592;28;51729;-68
2022/06/07 01:18:03;;;;;;;;;2.00;2.00;;;;;;;;5013518;28;51226;-69
2022/06/07 01:20:29;;;;;;;;;1.00;1.00;;;;;;;;5012288;28;51119;-69
2022/06/07 01:22:55;;;;;;;;;1.67;1.67;;;;;;;;5016573;28;51106;-70
2022/06/07 01:25:20;;;;;;;;;1.67;1.67;;;;;;;;5007585;28;51105;-68
2022/06/07 01:27:46;;;;;;;;;1.67;1.67;;;;;;;;5010983;28;52687;-68
2022/06/07 01:30:11;;;;;;;;;2.67;1.67;;;;;;;;5012357;28;51270;-68
2022/06/07 01:32:37;;;;;;;;;2.00;2.00;;;;;;;;5009237;28;51147;-69
2022/06/07 01:35:03;;;;;;;;;2.00;2.00;;;;;;;;5010224;28;51130;-68
2022/06/07 01:37:28;;;;;;;;;1.67;1.33;;;;;;;;5003418;28;54594;-68
2022/06/07 01:42:37;;;;;;;;;1.33;1.33;;;;;;;;5008798;28;51113;-68
2022/06/07 01:45:03;;;;;;;;;1.67;1.67;;;;;;;;5013844;28;52076;-68
2022/06/07 01:47:29;;;;;;;;;2.33;2.33;;;;;;;;5009813;28;51190;-68
2022/06/07 01:49:55;;;;;;;;;2.33;2.33;;;;;;;;5020664;28;50941;-69
2022/06/07 01:52:22;;;;;;;;;1.67;1.67;;;;;;;;5030254;28;50941;-68
2022/06/07 01:54:47;;;;;;;;;1.33;1.33;;;;;;;;5015189;28;51326;-68
2022/06/07 01:57:13;;;;;;;;;3.67;2.67;;;;;;;;5008185;28;51898;-69
2022/06/07 01:59:38;;;;;;;;;2.00;2.00;;;;;;;;5020121;28;51208;-69
2022/06/07 02:02:04;;;;;;;;;1.00;1.00;;;;;;;;5015102;28;51237;-68
2022/06/07 02:04:29;;;;;;;;;1.67;1.67;;;;;;;;5015558;28;50993;-68
2022/06/07 02:06:55;;;;;;;;;3.67;3.00;;;;;;;;5023548;28;51904;-68
2022/06/07 02:09:20;;;;;;;;;2.33;2.33;;;;;;;;5017283;28;51056;-68
2022/06/07 02:11:45;;;;;;;;;3.00;3.00;;;;;;;;5014437;28;51574;-69
2022/06/07 02:14:11;;;;;;;;;2.00;2.00;;;;;;;;5007729;28;51198;-68
2022/06/07 02:16:37;;;;;;;;;1.67;1.67;;;;;;;;5024817;28;52206;-70
2022/06/07 02:19:03;;;;;;;;;3.33;3.00;;;;;;;;5015822;28;51171;-70
2022/06/07 02:21:28;;;;;;;;;2.33;2.33;;;;;;;;5016256;28;51658;-69
2022/06/07 02:23:54;;;;;;;;;3.67;3.67;;;;;;;;5013908;28;51275;-70
2022/06/07 02:26:26;;;;;;;;;1.67;1.67;;;;;;;;5022497;28;51555;-69
2022/06/07 02:28:54;;;;;;;;;2.33;2.33;;;;;;;;5006575;28;51159;-68
2022/06/07 02:31:20;;;;;;;;;2.00;2.00;;;;;;;;5010892;28;51010;-68
2022/06/07 02:33:45;;;;;;;;;2.00;2.00;;;;;;;;5012317;28;50986;-69
2022/06/07 02:36:11;;;;;;;;;2.00;2.00;;;;;;;;5013640;28;51925;-68
2022/06/07 02:38:36;;;;;;;;;4.00;4.00;;;;;;;;5013520;28;51029;-67
2022/06/07 02:41:03;;;;;;;;;3.00;3.00;;;;;;;;5011752;28;51150;-68
2022/06/07 02:43:29;;;;;;;;;2.00;2.00;;;;;;;;5012825;28;51428;-68
2022/06/07 02:45:55;;;;;;;;;1.00;1.00;;;;;;;;4995389;28;51924;-68
2022/06/07 02:48:20;;;;;;;;;4.00;4.00;;;;;;;;5007189;28;50983;-69
2022/06/07 02:50:45;;;;;;;;;3.00;3.00;;;;;;;;5010177;28;51339;-68
2022/06/07 02:53:12;;;;;;;;;3.67;3.00;;;;;;;;5014440;28;51393;-69
2022/06/07 02:55:37;;;;;;;;;1.00;1.00;;;;;;;;5013515;28;52003;-69
2022/06/07 02:58:03;;;;;;;;;3.33;3.00;;;;;;;;5010993;28;51372;-68
2022/06/07 03:00:28;;;;;;;;;3.00;3.00;;;;;;;;5010458;28;51287;-68
2022/06/07 03:02:53;;;;;;;;;4.00;3.00;;;;;;;;5016966;28;50965;-69
2022/06/07 03:05:18;;;;;;;;;1.33;1.33;;;;;;;;5014270;28;51372;-69
2022/06/07 03:07:44;;;;;;;;;3.00;3.00;;;;;;;;5012813;28;51065;-69
2022/06/07 03:10:10;;;;;;;;;3.00;3.00;;;;;;;;5014763;28;51220;-68
2022/06/07 03:12:35;;;;;;;;;3.00;3.00;;;;;;;;5015757;28;50880;-69
2022/06/07 03:15:00;;;;;;;;;2.67;2.67;;;;;;;;5015249;28;51766;-70
2022/06/07 03:17:26;;;;;;;;;3.67;3.67;;;;;;;;5013555;28;50977;-68
2022/06/07 03:19:51;;;;;;;;;3.00;3.00;;;;;;;;5003896;28;51005;-68
2022/06/07 03:22:17;;;;;;;;;4.33;4.33;;;;;;;;5011809;28;51098;-68
2022/06/07 03:24:42;;;;;;;;;4.00;3.00;;;;;;;;5012893;28;53116;-69
2022/06/07 03:27:07;;;;;;;;;3.00;3.00;;;;;;;;5000275;28;51263;-69
2022/06/07 03:29:32;;;;;;;;;3.00;3.00;;;;;;;;5004816;28;51294;-66
2022/06/07 03:31:58;;;;;;;;;3.67;3.67;;;;;;;;5009237;28;51290;-68
2022/06/07 03:34:23;;;;;;;;;3.00;3.00;;;;;;;;5011298;28;52179;-68
2022/06/07 03:36:48;;;;;;;;;3.67;3.67;;;;;;;;5006929;28;51546;-69
2022/06/07 03:39:13;;;;;;;;;3.00;3.00;;;;;;;;5012492;28;51042;-68
2022/06/07 03:41:39;;;;;;;;;2.67;2.67;;;;;;;;5010961;28;51001;-68
2022/06/07 03:44:04;;;;;;;;;3.67;3.00;;;;;;;;5012152;28;51722;-69
2022/06/07 03:46:30;;;;;;;;;3.00;3.00;;;;;;;;5012221;28;51173;-68
2022/06/07 03:48:55;;;;;;;;;3.33;3.33;;;;;;;;5011858;28;51263;-67
2022/06/07 03:51:23;;;;;;;;;3.00;3.00;;;;;;;;5014971;28;51104;-69
2022/06/07 03:53:48;;;;;;;;;4.00;3.33;;;;;;;;5007916;28;52073;-68
2022/06/07 03:56:14;;;;;;;;;5.00;4.00;;;;;;;;5012111;28;51020;-68
2022/06/07 03:58:40;;;;;;;;;3.00;3.00;;;;;;;;5009728;28;51363;-68
2022/06/07 04:01:06;;;;;;;;;4.00;3.67;;;;;;;;5016687;28;51049;-68
2022/06/07 04:03:32;;;;;;;;;3.00;3.00;;;;;;;;5015024;28;52756;-68
2022/06/07 04:05:57;;;;;;;;;4.33;4.33;;;;;;;;5011839;28;51061;-68
2022/06/07 04:08:23;;;;;;;;;4.00;4.00;;;;;;;;5006725;28;51044;-68
2022/06/07 04:10:52;;;;;;;;;3.00;3.00;;;;;;;;5009896;28;51192;-68
2022/06/07 04:13:19;;;;;;;;;5.00;4.00;;;;;;;;5010213;28;51811;-68
2022/06/07 04:15:44;;;;;;;;;3.33;3.00;;;;;;;;5012449;28;51102;-69
2022/06/07 04:18:10;;;;;;;;;3.33;3.00;;;;;;;;5010496;28;51226;-69
2022/06/07 04:20:35;;;;;;;;;4.00;4.00;;;;;;;;5012351;28;51056;-68
2022/06/07 04:23:00;;;;;;;;;4.00;4.00;;;;;;;;5010772;28;51816;-69
2022/06/07 04:25:27;;;;;;;;;4.00;4.00;;;;;;;;5003565;28;51088;-68
2022/06/07 04:27:53;;;;;;;;;4.33;4.33;;;;;;;;5002949;28;51270;-69
2022/06/07 04:30:18;;;;;;;;;3.00;3.00;;;;;;;;5012198;28;51125;-68
2022/06/07 04:32:46;;;;;;;;;6.00;6.00;;;;;;;;4990900;28;51576;-68
2022/06/07 04:35:13;;;;;;;;;5.00;4.00;;;;;;;;5009690;28;51057;-69
2022/06/07 04:37:38;;;;;;;;;4.00;4.00;;;;;;;;5005911;28;51504;-69
2022/06/07 04:40:04;;;;;;;;;5.00;4.33;;;;;;;;5010470;28;50947;-69
2022/06/07 04:42:29;;;;;;;;;4.00;4.00;;;;;;;;5011245;28;52885;-69
2022/06/07 04:44:54;;;;;;;;;4.00;4.00;;;;;;;;5009364;28;50977;-69
2022/06/07 04:47:19;;;;;;;;;4.00;4.00;;;;;;;;5008931;28;51364;-68
2022/06/07 04:49:45;;;;;;;;;5.00;5.00;;;;;;;;5010899;28;51138;-68
2022/06/07 04:52:10;;;;;;;;;4.00;4.00;;;;;;;;5016656;28;51848;-68
2022/06/07 04:54:35;;;;;;;;;3.67;3.67;;;;;;;;5010007;28;50891;-68
2022/06/07 04:57:00;;;;;;;;;5.00;5.00;;;;;;;;5009749;28;51818;-68
2022/06/07 04:59:25;;;;;;;;;5.50;5.50;;;;;;;;5009125;28;51259;-68
2022/06/07 05:01:51;;;;;;;;;5.00;5.00;;;;;;;;5014056;28;51983;-69
2022/06/07 05:04:16;;;;;;;;;6.00;5.00;;;;;;;;5009813;28;50869;-68
2022/06/07 05:06:42;;;;;;;;;4.67;4.00;;;;;;;;5011197;28;51157;-68
2022/06/07 05:09:10;;;;;;;;;4.00;3.00;;;;;;;;5002316;28;51180;-68
2022/06/07 05:11:36;;;;;;;;;4.33;4.33;;;;;;;;5011702;28;51933;-69
2022/06/07 05:14:03;;;;;;;;;5.00;5.00;;;;;;;;5008403;28;51094;-68
2022/06/07 05:16:28;;;;;;;;;4.67;4.67;;;;;;;;5017175;28;51253;-68
2022/06/07 05:18:54;;;;;;;;;5.67;5.67;;;;;;;;5013458;28;51140;-69
2022/06/07 05:21:20;;;;;;;;;4.00;4.00;;;;;;;;5011766;28;51211;-69
2022/06/07 05:23:46;;;;;;;;;5.67;5.00;;;;;;;;5008222;28;51100;-68
2022/06/07 05:26:30;;;;;;;;;5.00;5.00;;;;;;;;5012840;28;50903;-70
2022/06/07 05:28:55;;;;;;;;;5.00;4.67;;;;;;;;5011353;28;51019;-68
2022/06/07 05:31:21;;;;;;;;;5.00;5.00;;;;;;;;5004882;28;51973;-68
2022/06/07 05:33:46;;;;;;;;;3.67;3.67;;;;;;;;5008993;28;51024;-68
2022/06/07 05:36:11;;;;;;;;;5.00;4.00;;;;;;;;5013896;28;51073;-69
2022/06/07 05:38:36;;;;;;;;;4.33;4.33;;;;;;;;5010464;28;50942;-68
2022/06/07 05:41:02;;;;;;;;;4.00;4.00;;;;;;;;5005436;28;53000;-69
2022/06/07 05:43:27;;;;;;;;;4.67;4.67;;;;;;;;5018184;28;51116;-69
2022/06/07 05:45:54;;;;;;;;;4.33;4.33;;;;;;;;5014187;28;51063;-69
2022/06/07 05:48:19;;;;;;;;;3.33;3.33;;;;;;;;5009735;28;51271;-69
2022/06/07 05:50:48;;;;;;;;;3.00;2.33;;;;;;;;5009352;28;52365;-68
2022/06/07 05:53:14;;;;;;;;;4.00;4.00;;;;;;;;5007049;28;51152;-69
2022/06/07 05:55:40;;;;;;;;;3.00;3.00;;;;;;;;5010727;28;51092;-69
2022/06/07 05:58:05;;;;;;;;;3.00;3.00;;;;;;;;5011830;28;51137;-70
2022/06/07 06:00:30;;;;;;;;;4.00;3.00;;;;;;;;4995020;28;51934;-69
2022/06/07 06:02:56;;;;;;;;;3.33;3.33;;;;;;;;5004798;28;51232;-70
2022/06/07 06:05:21;;;;;;;;;3.33;3.33;;;;;;;;5011207;28;51075;-69
2022/06/07 06:10:30;;;;;;;;;3.00;3.00;;;;;;;;5005709;28;51536;-69
2022/06/07 06:12:55;;;;;;;;;4.00;4.00;;;;;;;;5006973;28;51387;-69
2022/06/07 06:15:21;;;;;;;;;5.00;4.33;;;;;;;;5001570;28;51011;-69
2022/06/07 06:17:46;;;;;;;;;6.00;6.00;;;;;;;;5006227;28;51287;-69
2022/06/07 06:20:11;;;;;;;;;3.00;2.67;;;;;;;;5006445;28;51768;-69
2022/06/07 06:22:37;;;;;;;;;3.00;3.00;;;;;;;;5013275;28;51013;-69
2022/06/07 06:25:04;;;;;;;;;4.00;4.00;;;;;;;;5006268;28;51252;-69
2022/06/07 06:27:32;;;;;;;;;5.00;4.00;;;;;;;;5009848;28;51193;-69
2022/06/07 06:29:58;;;;;;;;;3.67;3.33;;;;;;;;5008100;28;51097;-69
2022/06/07 06:32:23;;;;;;;;;3.33;3.00;;;;;;;;5007900;28;51105;-68
2022/06/07 06:34:48;;;;;;;;;4.00;4.00;;;;;;;;5004702;28;51384;-70
2022/06/07 06:37:14;;;;;;;;;4.00;4.00;;;;;;;;4997355;28;51436;-70
2022/06/07 06:39:40;;;;;;;;;4.00;3.33;;;;;;;;5007356;28;51654;-69
2022/06/07 06:42:05;;;;;;;;;5.67;5.33;;;;;;;;5006688;28;51240;-70
2022/06/07 06:44:30;;;;;;;;;8.00;8.00;;;;;;;;5014334;28;51084;-71
2022/06/07 06:46:57;;;;;;;;;8.00;7.00;;;;;;;;5007241;28;51283;-73
2022/06/07 06:49:22;;;;;;;;;5.00;5.00;;;;;;;;5010377;28;51144;-72
2022/06/07 06:51:47;;;;;;;;;5.33;4.33;;;;;;;;5008750;28;51138;-71
2022/06/07 06:54:13;;;;;;;;;6.00;5.33;;;;;;;;5007817;28;50941;-71
2022/06/07 06:56:39;;;;;;;;;2.67;2.67;;;;;;;;5011601;28;51370;-71
2022/06/07 06:59:04;;;;;;;;;4.33;4.33;;;;;;;;5009730;28;51818;-71
2022/06/07 07:01:33;;;;;;;;;3.33;2.67;;;;;;;;5012287;28;51013;-71
2022/06/07 07:03:59;;;;;;;;;3.00;3.00;;;;;;;;5024454;28;51125;-70
2022/06/07 07:06:24;;;;;;;;;4.33;3.67;;;;;;;;5010313;28;52481;-71
2022/06/07 07:08:50;;;;;;;;;3.00;3.00;;;;;;;;5008937;28;51992;-71
2022/06/07 07:11:38;;;;;;;;;2.00;2.00;;;;;;;;5011147;28;51228;-72
2022/06/07 07:14:05;;;;;;;;;3.33;3.00;;;;;;;;5021912;28;51341;-71
2022/06/07 07:16:32;;;;;;;;;2.67;2.67;;;;;;;;5015537;28;51243;-72
2022/06/07 07:18:58;;;;;;;;;2.33;2.33;;;;;;;;5022340;28;52145;-72
2022/06/07 07:21:26;;;;;;;;;5.00;4.67;;;;;;;;5013220;28;51121;-72
2022/06/07 07:23:51;;;;;;;;;3.00;3.00;;;;;;;;5020332;28;51677;-71
2022/06/07 07:26:19;;;;;;;;;3.00;3.00;;;;;;;;5014101;28;51076;-70
2022/06/07 07:28:45;;;;;;;;;4.00;4.00;;;;;;;;5010442;28;53863;-71
2022/06/07 07:31:14;;;;;;;;;1.00;1.00;;;;;;;;5009819;28;51128;-70
2022/06/07 07:33:39;;;;;;;;;3.00;2.67;;;;;;;;5011916;28;51440;-70
2022/06/07 07:36:05;;;;;;;;;3.00;2.00;;;;;;;;5008505;28;51444;-69
2022/06/07 07:38:31;;;;;;;;;2.33;2.00;;;;;;;;5012211;28;51669;-71
2022/06/07 07:40:56;;;;;;;;;1.00;1.00;;;;;;;;5005770;28;51196;-71
2022/06/07 07:43:21;;;;;;;;;0.00;0.00;;;;;;;;5011819;28;51220;-70
2022/06/07 07:45:50;;;;;;;;;1.00;1.00;;;;;;;;5008914;28;51575;-71
2022/06/07 07:48:16;;;;;;;;;1.67;1.00;;;;;;;;5012804;28;51186;-70
2022/06/07 07:50:44;;;;;;;;;3.00;2.00;;;;;;;;5009861;28;51177;-72
2022/06/07 07:53:10;;;;;;;;;1.00;1.00;;;;;;;;5012242;28;50969;-68
2022/06/07 07:55:35;;;;;;;;;2.00;2.00;;;;;;;;5014826;28;51101;-68
2022/06/07 07:58:01;;;;;;;;;0.00;0.00;;;;;;;;5012375;28;52061;-68
2022/06/07 08:00:28;;;;;;;;;2.00;2.00;;;;;;;;5012126;28;50912;-68
2022/06/07 08:02:54;;;;;;;;;1.67;1.67;;;;;;;;5022449;28;51019;-69
2022/06/07 08:05:20;;;;;;;;;1.00;1.00;;;;;;;;5014846;28;51516;-68
2022/06/07 08:07:45;;;;;;;;;65.33;51.33;;;;;;;;5011893;28;53502;-69
2022/06/07 08:10:10;;;;;;;;;5.00;4.00;;;;;;;;5021443;28;51136;-69
2022/06/07 08:12:36;;;;;;;;;2.00;2.00;;;;;;;;5022206;28;51326;-69
2022/06/07 08:15:01;;;;;;;;;2.33;2.33;;;;;;;;5012902;28;51182;-68
2022/06/07 08:17:27;;;;;;;;;2.00;2.00;;;;;;;;5000374;28;51054;-69
2022/06/07 08:19:53;;;;;;;;;2.00;2.00;;;;;;;;5011959;28;51127;-68
2022/06/07 08:22:19;;;;;;;;;3.00;3.00;;;;;;;;5008523;28;50862;-68
2022/06/07 08:24:45;;;;;;;;;1.67;1.33;;;;;;;;5008237;28;51093;-67
2022/06/07 08:27:10;;;;;;;;;2.67;2.67;;;;;;;;5012041;28;51300;-68
2022/06/07 08:29:36;;;;;;;;;2.00;1.00;;;;;;;;5016523;28;51165;-68
2022/06/07 08:32:01;;;;;;;;;2.00;2.00;;;;;;;;5005874;28;51141;-69
2022/06/07 08:39:54;;;;;;;;;2.00;2.00;;;;;;;;5000632;28;51135;-69
2022/06/07 08:42:28;;;;;;;;;2.00;1.00;;;;;;;;5005771;28;50964;-69
2022/06/07 08:44:53;;;;;;;;;2.00;2.00;;;;;;;;5019880;28;51139;-69
2022/06/07 08:47:23;;;;;;;;;2.33;2.00;;;;;;;;5010384;28;51173;-70
2022/06/07 08:49:49;;;;;;;;;2.33;2.00;;;;;;;;5017062;28;51124;-70
2022/06/07 08:52:20;;;;;;;;;2.33;2.33;;;;;;;;5023337;28;51096;-69
2022/06/07 08:54:45;;;;;;;;;2.00;2.00;;;;;;;;5013842;28;51023;-70
2022/06/07 08:57:22;;;;;;;;;2.00;2.00;;;;;;;;5014327;28;51713;-69
2022/06/07 08:59:50;;;;;;;;;2.67;1.67;;;;;;;;5013967;28;51143;-68
2022/06/07 09:02:26;;;;;;;;;3.00;2.00;;;;;;;;5030228;28;51168;-69
2022/06/07 09:04:52;;;;;;;;;3.00;3.00;;;;;;;;5021737;28;51146;-69
2022/06/07 09:07:19;;;;;;;;;3.00;3.00;;;;;;;;5016365;28;51616;-68
2022/06/07 09:12:32;;;;;;;;;2.00;2.00;;;;;;;;5011702;28;51270;-68
2022/06/07 09:15:11;;;;;;;;;2.00;2.00;;;;;;;;5017502;28;51284;-69
2022/06/07 09:17:41;;;;;;;;;1.33;1.33;;;;;;;;5014526;28;51146;-68
2022/06/07 09:20:17;;;;;;;;;1.00;1.00;;;;;;;;5016261;28;51083;-69
2022/06/07 09:22:51;;;;;;;;;6.00;6.00;;;;;;;;5015049;28;51069;-68
2022/06/07 09:25:23;;;;;;;;;0.00;0.00;;;;;;;;5016848;28;50867;-69
2022/06/07 09:27:48;;;;;;;;;3.00;3.00;;;;;;;;5014747;28;52730;-69
2022/06/07 09:30:17;;;;;;;;;3.33;3.33;;;;;;;;5015427;28;51021;-69
2022/06/07 09:32:45;;;;;;;;;3.00;3.00;;;;;;;;5013940;28;51287;-69
2022/06/07 09:35:20;;;;;;;;;2.00;2.00;;;;;;;;5015873;28;51208;-69
2022/06/07 09:38:01;;;;;;;;;2.00;2.00;;;;;;;;5015114;28;51727;-69
2022/06/07 09:40:28;;;;;;;;;1.00;1.00;;;;;;;;5015487;28;50847;-69
2022/06/07 09:42:58;;;;;;;;;1.00;1.00;;;;;;;;5015345;28;51116;-70
2022/06/07 09:45:28;;;;;;;;;2.00;2.00;;;;;;;;5014461;28;51213;-70
2022/06/07 09:47:54;;;;;;;;;1.00;1.00;;;;;;;;5013430;28;51193;-70
2022/06/07 09:50:26;;;;;;;;;1.00;1.00;;;;;;;;5015035;28;51010;-70
2022/06/07 09:52:59;;;;;;;;;1.00;1.00;;;;;;;;5020940;28;50961;-70
2022/06/07 09:55:33;;;;;;;;;1.00;0.33;;;;;;;;5014789;28;51337;-69
2022/06/07 09:58:01;;;;;;;;;4.00;2.67;;;;;;;;5014854;28;51307;-69
2022/06/07 10:00:31;;;;;;;;;3.00;2.00;;;;;;;;5016367;28;50854;-70
2022/06/07 10:03:15;;;;;;;;;1.67;1.67;;;;;;;;5023909;28;51024;-70
2022/06/07 10:05:46;;;;;;;;;1.00;1.00;;;;;;;;5015087;28;50957;-70
2022/06/07 10:08:12;;;;;;;;;1.00;1.00;;;;;;;;5013851;28;51034;-69
2022/06/07 10:10:46;;;;;;;;;0.00;0.00;;;;;;;;5014110;28;50934;-70
2022/06/07 10:13:26;;;;;;;;;1.67;1.00;;;;;;;;5013388;28;51080;-70
2022/06/07 10:16:10;;;;;;;;;1.00;1.00;;;;;;;;5014411;28;50923;-70
2022/06/07 10:18:40;;;;;;;;;2.00;2.00;;;;;;;;5012824;28;54041;-71
2022/06/07 10:21:08;;;;;;;;;3.00;1.00;;;;;;;;5013476;28;50989;-70
2022/06/07 10:23:52;;;;;;;;;0.33;0.33;;;;;;;;5013539;28;50959;-70
2022/06/07 10:26:24;;;;;;;;;2.00;2.00;;;;;;;;5010065;28;51308;-70
2022/06/07 10:29:16;;;;;;;;;4.00;3.00;;;;;;;;5014005;28;52063;-70
2022/06/07 10:31:50;;;;;;;;;1.00;1.00;;;;;;;;4986102;28;51308;-70
2022/06/07 10:34:26;;;;;;;;;2.00;2.00;;;;;;;;5001875;28;50935;-70
2022/06/07 10:36:58;;;;;;;;;1.00;1.00;;;;;;;;5014225;28;51132;-70
2022/06/07 10:39:42;;;;;;;;;1.33;1.33;;;;;;;;5013577;28;51060;-70
2022/06/07 10:42:26;;;;;;;;;4.67;4.33;;;;;;;;5013899;28;50853;-70
2022/06/07 10:44:51;;;;;;;;;2.67;1.33;;;;;;;;5014002;28;51290;-70
2022/06/07 10:47:35;;;;;;;;;1.00;1.00;;;;;;;;5014131;28;51051;-72
2022/06/07 10:50:03;;;;;;;;;3.00;3.00;;;;;;;;5013290;28;51837;-70
2022/06/07 10:52:35;;;;;;;;;4.00;3.00;;;;;;;;5015451;28;51058;-70
2022/06/07 10:55:16;;;;;;;;;2.67;2.00;;;;;;;;5012010;28;50902;-69
2022/06/07 10:57:54;;;;;;;;;3.00;3.00;;;;;;;;5013489;28;51234;-70
2022/06/07 11:00:40;;;;;;;;;4.33;3.33;;;;;;;;5001129;28;50938;-70
2022/06/07 11:03:17;;;;;;;;;1.33;1.33;;;;;;;;5010106;28;51069;-70
2022/06/07 11:11:16;;;;;;;;;7.00;6.33;;;;;;;;5009102;28;51181;-70
2022/06/07 11:13:46;;;;;;;;;1.00;1.00;;;;;;;;5015206;28;51161;-70
2022/06/07 11:16:34;;;;;;;;;2.00;1.00;;;;;;;;5016379;28;51107;-70
2022/06/07 11:19:00;;;;;;;;;2.00;2.00;;;;;;;;5017307;28;51328;-70
2022/06/07 11:21:28;;;;;;;;;1.67;1.00;;;;;;;;5017402;28;52149;-70
2022/06/07 11:23:57;;;;;;;;;4.33;3.33;;;;;;;;5018455;28;51101;-70
2022/06/07 11:26:22;;;;;;;;;54.00;44.00;;;;;;;;5015011;28;51167;-70
2022/06/07 11:28:49;;;;;;;;;3.00;2.00;;;;;;;;5014411;28;51205;-70
2022/06/07 11:31:20;;;;;;;;;1.33;1.33;;;;;;;;5014343;28;51808;-70
2022/06/07 11:33:45;;;;;;;;;5.00;5.00;;;;;;;;5015120;28;51026;-70
2022/06/07 11:36:13;;;;;;;;;2.67;2.00;;;;;;;;5013961;28;50940;-70
2022/06/07 11:38:54;;;;;;;;;3.00;3.00;;;;;;;;5013410;28;51086;-71
2022/06/07 11:41:38;;;;;;;;;5.00;3.00;;;;;;;;5002922;28;53275;-70
2022/06/07 11:44:03;;;;;;;;;1.00;1.00;;;;;;;;5008792;28;51135;-71
2022/06/07 11:46:34;;;;;;;;;2.00;2.00;;;;;;;;5012939;28;51182;-71
2022/06/07 11:49:19;;;;;;;;;1.00;1.00;;;;;;;;5012965;28;51343;-71
2022/06/07 11:51:55;;;;;;;;;2.00;1.67;;;;;;;;5020083;28;50953;-71
2022/06/07 11:54:32;;;;;;;;;19.67;19.33;;;;;;;;5000277;28;51110;-71
2022/06/07 11:57:00;;;;;;;;;1.00;1.00;;;;;;;;5012592;28;51070;-73
2022/06/07 11:59:46;;;;;;;;;2.00;1.00;;;;;;;;5013139;28;51088;-72
2022/06/07 12:02:17;;;;;;;;;2.00;2.00;;;;;;;;5020636;28;51192;-71
2022/06/07 12:04:43;;;;;;;;;1.33;1.00;;;;;;;;5012927;28;51008;-71
2022/06/07 12:07:14;;;;;;;;;1.00;1.00;;;;;;;;5012539;28;50989;-72
2022/06/07 12:09:45;;;;;;;;;1.00;1.00;;;;;;;;5012144;28;51144;-71
2022/06/07 12:12:18;;;;;;;;;3.33;3.33;;;;;;;;5011699;28;51078;-72
2022/06/07 12:14:45;;;;;;;;;4.67;2.33;;;;;;;;5012399;28;51097;-71
2022/06/07 12:17:24;;;;;;;;;1.00;1.00;;;;;;;;5012576;28;50837;-71
2022/06/07 12:19:50;;;;;;;;;3.00;3.00;;;;;;;;5012511;28;50901;-71
2022/06/07 12:22:16;;;;;;;;;1.67;1.00;;;;;;;;5013379;28;51981;-71
2022/06/07 12:24:43;;;;;;;;;1.00;1.00;;;;;;;;5009741;28;51175;-71
2022/06/07 12:27:27;;;;;;;;;0.00;0.00;;;;;;;;5015841;28;51120;-71
2022/06/07 12:29:55;;;;;;;;;2.00;1.67;;;;;;;;5014982;28;50993;-71
2022/06/07 12:32:27;;;;;;;;;0.00;0.00;;;;;;;;5001667;28;52926;-71
2022/06/07 12:35:11;;;;;;;;;1.00;0.00;;;;;;;;5014306;28;51124;-72
2022/06/07 12:37:38;;;;;;;;;3.00;1.00;;;;;;;;5014411;28;51100;-71
2022/06/07 12:40:04;;;;;;;;;0.00;0.00;;;;;;;;5015495;28;51020;-72
2022/06/07 12:42:33;;;;;;;;;0.67;0.67;;;;;;;;5014653;28;51289;-71
2022/06/07 12:45:00;;;;;;;;;1.00;1.00;;;;;;;;5014836;28;51043;-72
2022/06/07 12:47:33;;;;;;;;;1.00;1.00;;;;;;;;5015129;28;51121;-72
2022/06/07 12:49:58;;;;;;;;;8.33;8.33;;;;;;;;5015642;28;51523;-72
2022/06/07 12:52:26;;;;;;;;;5.00;5.00;;;;;;;;5019350;28;50916;-70
2022/06/07 12:54:54;;;;;;;;;1.00;1.00;;;;;;;;5014141;28;51104;-73
2022/06/07 12:57:25;;;;;;;;;66.50;55.00;;;;;;;;5015500;28;51182;-72
2022/06/07 12:59:56;;;;;;;;;1.00;1.00;;;;;;;;5014132;28;51041;-73
2022/06/07 13:02:22;;;;;;;;;2.33;2.33;;;;;;;;5010329;28;53826;-71
2022/06/07 13:04:49;;;;;;;;;1.00;1.00;;;;;;;;5015203;28;51056;-71
2022/06/07 13:07:31;;;;;;;;;1.00;1.00;;;;;;;;5014902;28;51186;-71
2022/06/07 13:09:58;;;;;;;;;1.00;1.00;;;;;;;;5013837;28;50987;-71
2022/06/07 13:12:34;;;;;;;;;1.00;1.00;;;;;;;;5014950;28;51896;-70
2022/06/07 13:14:59;;;;;;;;;0.00;0.00;;;;;;;;5013529;28;51150;-71
2022/06/07 13:17:30;;;;;;;;;4.33;2.33;;;;;;;;5015399;28;51007;-71
2022/06/07 13:19:56;;;;;;;;;3.67;3.00;;;;;;;;5015039;28;51080;-72
2022/06/07 13:22:22;;;;;;;;;1.33;1.00;;;;;;;;5014104;28;51938;-72
2022/06/07 13:24:48;;;;;;;;;1.00;1.00;;;;;;;;5014052;28;51132;-72
2022/06/07 13:27:35;;;;;;;;;1.00;1.00;;;;;;;;5018424;28;50908;-72
2022/06/07 13:30:01;;;;;;;;;0.33;0.00;;;;;;;;5016365;28;51052;-72
2022/06/07 13:32:28;;;;;;;;;2.00;2.00;;;;;;;;5017450;28;51145;-72
2022/06/07 13:34:55;;;;;;;;;0.00;0.00;;;;;;;;5018014;28;51011;-72
2022/06/07 13:37:25;;;;;;;;;1.00;1.00;;;;;;;;5018985;28;50888;-71
2022/06/07 13:40:02;;;;;;;;;1.00;1.00;;;;;;;;5016754;28;51049;-72
2022/06/07 13:42:29;;;;;;;;;1.00;1.00;;;;;;;;5016145;28;51161;-72
2022/06/07 13:45:13;;;;;;;;;1.00;1.00;;;;;;;;5015512;28;51070;-72
2022/06/07 13:47:39;;;;;;;;;1.00;1.00;;;;;;;;5005242;28;51011;-71
2022/06/07 13:53:21;;;;;;;;;5.00;3.33;;;;;;;;5014818;28;51003;-73
2022/06/07 13:55:50;;;;;;;;;1.00;1.00;;;;;;;;5015982;28;50957;-71
2022/06/07 13:58:17;;;;;;;;;1.00;1.00;;;;;;;;5016104;28;50978;-72
2022/06/07 14:00:42;;;;;;;;;1.00;1.00;;;;;;;;5017826;28;51332;-72
2022/06/07 14:03:16;;;;;;;;;1.33;1.00;;;;;;;;5016498;28;51931;-72
2022/06/07 14:05:41;;;;;;;;;1.67;1.67;;;;;;;;5016547;28;51031;-71
2022/06/07 14:08:13;;;;;;;;;0.67;0.67;;;;;;;;5016894;28;51043;-72
2022/06/07 14:10:38;;;;;;;;;1.00;1.00;;;;;;;;5017501;28;50888;-72
2022/06/07 14:13:03;;;;;;;;;1.00;1.00;;;;;;;;5014879;28;51451;-72
2022/06/07 14:15:30;;;;;;;;;3.67;3.67;;;;;;;;5014505;28;50942;-72
2022/06/07 14:17:55;;;;;;;;;2.00;2.00;;;;;;;;5014510;28;51059;-71
2022/06/07 14:20:22;;;;;;;;;2.00;2.00;;;;;;;;5014304;28;50978;-72
2022/06/07 14:22:49;;;;;;;;;1.00;1.00;;;;;;;;5013905;28;51139;-72
2022/06/07 14:25:16;;;;;;;;;1.00;0.00;;;;;;;;5003860;28;50878;-71
2022/06/07 14:27:41;;;;;;;;;2.00;2.00;;;;;;;;5012191;28;50843;-72
2022/06/07 14:30:07;;;;;;;;;1.00;1.00;;;;;;;;5014297;28;50958;-72
2022/06/07 14:32:38;;;;;;;;;2.00;2.00;;;;;;;;5013184;28;50933;-70
2022/06/07 14:35:15;;;;;;;;;1.00;1.00;;;;;;;;5013368;28;51054;-71
2022/06/07 14:37:40;;;;;;;;;0.00;0.00;;;;;;;;5013416;28;51168;-70
2022/06/07 14:40:13;;;;;;;;;2.00;2.00;;;;;;;;5014183;28;51105;-70
2022/06/07 14:42:42;;;;;;;;;2.00;2.00;;;;;;;;5013839;28;51875;-71
2022/06/07 14:45:09;;;;;;;;;2.00;2.00;;;;;;;;5013559;28;50871;-71
2022/06/07 14:47:34;;;;;;;;;2.00;1.00;;;;;;;;5014161;28;51063;-71
2022/06/07 14:50:00;;;;;;;;;1.00;1.00;;;;;;;;5013831;28;51284;-71
2022/06/07 14:52:25;;;;;;;;;3.00;3.00;;;;;;;;5015508;28;51829;-71
2022/06/07 14:54:51;;;;;;;;;2.00;2.00;;;;;;;;5011229;28;52767;-71
2022/06/07 14:57:21;;;;;;;;;2.00;2.00;;;;;;;;5013279;28;51251;-71
2022/06/07 14:59:47;;;;;;;;;2.00;2.00;;;;;;;;5013417;28;51243;-71
2022/06/07 15:02:17;;;;;;;;;2.67;2.33;;;;;;;;5016834;28;51768;-71
2022/06/07 15:04:50;;;;;;;;;6.67;6.33;;;;;;;;5013099;28;51019;-71
2022/06/07 15:07:18;;;;;;;;;0.00;0.00;;;;;;;;5013627;28;51080;-72
2022/06/07 15:09:44;;;;;;;;;2.00;2.00;;;;;;;;5013515;28;51029;-71
2022/06/07 15:12:09;;;;;;;;;3.00;3.00;;;;;;;;5013630;28;51891;-72
2022/06/07 15:14:34;;;;;;;;;1.00;1.00;;;;;;;;5013309;28;50912;-71